ePrivacy and GPDR Cookie Consent by Cookie Consent
EmailTwitter


Surface observations / United Kingdom / EGLC

Regions: Quebec | Canada | USA | Europe | France | UK | Elsewhere
Station
Display
Info & Location for EGLC | Help decoding METAR

Weather Conditions observed on 2021/06/20 at 15:20 UTC at LONDON CITY AIRP, UK (EGLC)

Sky conditions: overcast.

Temperature: 18.0 Celsius.

Dewpoint: 14.0 Celsius.

Relative Humidity: 77%

Winds: East-northeast at 17 km/h or 9 knots.

Mean Sea level Pressure: 100.80 kilopascals.

Horizontal visibility: 6.21 statute miles or 9.94 kilometers.

Height of the Ceiling: 549 metres ( 1800 feet ).

Coded METAR:

EGLC 201520Z AUTO 07009KT 9999 BKN018 OVC031 18/14 Q1008=